createdAt,value
2019-06-10T00:02:51.995Z,1.00
2019-06-10T00:06:56.111Z,1.02
2019-06-10T00:11:04.186Z,1.20
2019-06-10T00:15:07.775Z,1.10
2019-06-10T00:19:12.868Z,1.00
2019-06-10T00:23:17.152Z,1.00
2019-06-10T00:27:21.568Z,1.00
2019-06-10T00:31:25.746Z,1.10
2019-06-10T00:35:31.511Z,0.90
2019-06-10T00:39:36.015Z,1.47
2019-06-10T00:43:41.133Z,0.80
2019-06-10T00:47:45.374Z,1.10
2019-06-10T00:51:50.974Z,1.20
2019-06-10T00:55:55.878Z,1.10
2019-06-10T01:00:01.742Z,1.10
2019-06-10T01:04:24.519Z,1.10
2019-06-10T01:08:28.614Z,0.80
2019-06-10T01:12:32.915Z,0.85
2019-06-10T01:16:36.989Z,1.10
2019-06-10T01:20:41.510Z,1.05
2019-06-10T01:24:45.805Z,1.12
2019-06-10T01:28:51.679Z,0.78
2019-06-10T01:32:55.924Z,0.90
2019-06-10T01:37:01.473Z,1.40
2019-06-10T01:41:06.080Z,1.10
2019-06-10T01:45:11.504Z,1.00
2019-06-10T01:49:16.803Z,1.12
2019-06-10T01:53:22.589Z,0.93
2019-06-10T01:57:26.649Z,1.10
2019-06-10T02:01:37.496Z,1.00
2019-06-10T02:05:42.094Z,1.07
2019-06-10T02:09:46.293Z,1.10
2019-06-10T02:13:53.187Z,0.80
2019-06-10T02:17:57.269Z,0.90
2019-06-10T02:22:01.479Z,1.10
2019-06-10T02:26:05.727Z,0.95
2019-06-10T02:30:18.982Z,1.00
2019-06-10T02:34:20.352Z,1.30
2019-06-10T02:38:30.607Z,1.00
2019-06-10T02:42:35.874Z,1.05
2019-06-10T02:46:38.667Z,1.25
2019-06-10T02:51:03.733Z,1.52
2019-06-10T02:55:13.347Z,1.25
2019-06-10T02:59:16.120Z,1.30
2019-06-10T03:03:27.939Z,1.17
2019-06-10T03:07:31.100Z,1.30
2019-06-10T03:11:36.958Z,1.82
2019-06-10T03:15:42.677Z,1.30
2019-06-10T03:19:50.521Z,1.50
2019-06-10T03:23:53.238Z,1.75
2019-06-10T03:27:57.393Z,1.30
2019-06-10T03:32:05.272Z,1.77
2019-06-10T03:36:07.341Z,1.60
2019-06-10T03:40:13.025Z,1.67
2019-06-10T03:44:17.817Z,1.15
2019-06-10T03:48:24.138Z,1.25
2019-06-10T03:52:28.829Z,1.30
2019-06-10T03:56:32.932Z,1.10
2019-06-10T04:00:59.245Z,1.40
2019-06-10T04:05:08.529Z,1.32
2019-06-10T04:09:12.581Z,1.47
2019-06-10T04:13:17.473Z,1.40
2019-06-10T04:17:22.672Z,1.40
2019-06-10T04:21:28.393Z,1.57
2019-06-10T04:25:32.559Z,1.47
2019-06-10T04:29:36.669Z,1.77
2019-06-10T04:33:42.158Z,1.52
2019-06-10T04:37:46.445Z,1.50
2019-06-10T04:41:52.928Z,1.50
2019-06-10T04:45:56.503Z,1.30
2019-06-10T04:50:02.939Z,1.12
2019-06-10T04:54:06.366Z,1.45
2019-06-10T04:58:12.835Z,1.37
2019-06-10T05:02:19.423Z,1.40
2019-06-10T05:06:26.854Z,1.40
2019-06-10T05:10:30.067Z,1.12
2019-06-10T05:14:34.405Z,1.35
2019-06-10T05:18:38.529Z,1.60
2019-06-10T05:22:42.696Z,1.45
2019-06-10T05:26:46.897Z,1.50
2019-06-10T05:30:53.181Z,1.50
2019-06-10T05:34:56.953Z,1.55
2019-06-10T05:39:02.761Z,1.37
2019-06-10T05:43:07.245Z,1.60
2019-06-10T05:47:12.643Z,1.62
2019-06-10T05:51:16.989Z,1.52
2019-06-10T05:55:22.847Z,1.50
2019-06-10T05:59:27.365Z,1.72
2019-06-10T06:03:35.283Z,1.62
2019-06-10T06:07:38.125Z,1.40
2019-06-10T06:11:43.031Z,1.50
2019-06-10T06:15:48.411Z,1.27
2019-06-10T06:19:53.471Z,1.15
2019-06-10T06:23:57.653Z,1.00
2019-06-10T06:28:02.983Z,1.30
2019-06-10T06:32:07.251Z,1.60
2019-06-10T06:36:12.588Z,1.32
2019-06-10T06:40:17.087Z,1.32
2019-06-10T06:44:23.404Z,1.20
2019-06-10T06:48:27.887Z,1.10
2019-06-10T06:53:04.064Z,1.00
2019-06-10T06:56:39.298Z,1.05
2019-06-10T07:01:00.634Z,1.10
2019-06-10T07:04:49.477Z,0.95
2019-06-10T07:09:03.977Z,1.40
2019-06-10T07:13:02.906Z,1.15
2019-06-10T07:17:06.961Z,0.90
2019-06-10T07:21:13.248Z,1.15
2019-06-10T07:25:16.999Z,1.07
2019-06-10T07:29:22.597Z,1.00
2019-06-10T07:33:28.049Z,1.20
2019-06-10T07:37:34.986Z,1.20
2019-06-10T07:41:39.368Z,1.10
2019-06-10T07:45:47.610Z,1.10
2019-06-10T07:49:49.477Z,1.00
2019-06-10T07:53:53.629Z,1.22
2019-06-10T07:57:57.752Z,1.10
2019-06-10T08:02:03.155Z,1.10
2019-06-10T08:06:07.454Z,0.95
2019-06-10T08:10:13.275Z,1.00
2019-06-10T08:14:22.162Z,1.00
2019-06-10T08:18:25.641Z,1.00
2019-06-10T08:22:33.364Z,1.22
2019-06-10T08:26:37.332Z,1.02
2019-06-10T08:30:42.969Z,1.10
2019-06-10T08:34:48.111Z,1.00
2019-06-10T08:38:52.908Z,1.00
2019-06-10T08:42:58.606Z,0.90
2019-06-10T08:47:03.137Z,1.00
2019-06-10T08:51:07.375Z,1.20
2019-06-10T08:55:12.611Z,0.90
2019-06-10T08:59:16.764Z,1.05
2019-06-10T09:03:23.364Z,0.90
2019-06-10T09:07:27.600Z,0.90
2019-06-10T09:11:32.892Z,1.00
2019-06-10T09:15:38.735Z,0.80
2019-06-10T09:19:46.100Z,0.80
2019-06-10T09:23:56.637Z,0.80
2019-06-10T09:27:55.117Z,1.42
2019-06-10T09:31:59.299Z,0.88
2019-06-10T09:36:03.929Z,0.80
2019-06-10T09:40:12.205Z,0.80
2019-06-10T09:44:15.987Z,0.70
2019-06-10T09:48:22.926Z,0.70
2019-06-10T09:52:28.324Z,0.82
2019-06-10T09:56:33.147Z,0.90
2019-06-10T10:00:40.875Z,0.78
2019-06-10T10:04:50.506Z,0.72
2019-06-10T10:08:57.626Z,0.80
2019-06-10T10:12:58.679Z,0.60
2019-06-10T10:17:04.674Z,0.90
2019-06-10T10:21:08.629Z,1.42
2019-06-10T10:25:14.412Z,0.90
2019-06-10T10:29:18.632Z,1.07
2019-06-10T10:33:25.365Z,0.90
2019-06-10T10:37:28.719Z,0.90
2019-06-10T10:41:34.373Z,0.82
2019-06-10T10:45:38.420Z,0.78
2019-06-10T10:49:42.827Z,0.80
2019-06-10T10:53:57.299Z,0.90
2019-06-10T10:57:55.471Z,0.90
2019-06-10T11:01:58.882Z,0.80
2019-06-10T11:06:03.225Z,0.60
2019-06-10T11:10:07.848Z,1.02
2019-06-10T11:14:14.927Z,0.85
2019-06-10T11:18:18.655Z,0.62
2019-06-10T11:22:23.355Z,0.98
2019-06-10T11:26:32.144Z,0.70
2019-06-10T11:30:34.326Z,0.82
2019-06-10T11:34:38.857Z,0.80
2019-06-10T11:38:43.275Z,0.72
2019-06-10T11:42:51.373Z,0.72
2019-06-10T11:46:58.137Z,0.95
2019-06-10T11:51:04.614Z,0.70
2019-06-10T11:55:15.394Z,0.82
2019-06-10T11:59:14.645Z,0.50
2019-06-10T12:03:19.073Z,1.15
2019-06-10T12:07:23.504Z,0.78
2019-06-10T12:11:27.687Z,0.80
2019-06-10T12:15:45.623Z,0.82
2019-06-10T12:19:37.567Z,0.80
2019-06-10T12:23:43.588Z,0.85
2019-06-10T12:27:48.103Z,0.70
2019-06-10T12:31:57.295Z,1.83
2019-06-10T12:36:01.449Z,1.00
2019-06-10T12:40:05.910Z,0.80
2019-06-10T12:44:12.354Z,0.90
2019-06-10T12:48:16.787Z,0.90
2019-06-10T12:52:22.889Z,1.00
2019-06-10T12:56:26.956Z,0.98
2019-06-10T13:00:33.372Z,0.90
2019-06-10T13:04:37.855Z,1.00
2019-06-10T13:08:42.833Z,0.85
2019-06-10T13:12:48.958Z,0.95
2019-06-10T13:16:53.249Z,1.00
2019-06-10T13:21:01.950Z,0.72
2019-06-10T13:25:04.762Z,0.98
2019-06-10T13:29:10.307Z,0.90
2019-06-10T13:33:15.230Z,0.70
2019-06-10T13:37:22.657Z,0.53
2019-06-10T13:41:27.620Z,0.68
2019-06-10T13:45:33.243Z,0.75
2019-06-10T13:49:37.789Z,0.80
2019-06-10T13:53:42.610Z,0.78
2019-06-10T13:57:47.960Z,0.70
2019-06-10T14:01:53.145Z,0.90
2019-06-10T14:05:59.718Z,0.82
2019-06-10T14:10:08.317Z,0.50
2019-06-10T14:14:17.473Z,0.98
2019-06-10T14:18:18.051Z,1.10
2019-06-10T14:22:22.964Z,0.88
2019-06-10T14:26:40.815Z,0.60
2019-06-10T14:30:39.069Z,0.80
2019-06-10T14:34:45.873Z,0.60
2019-06-10T14:38:50.952Z,0.80
2019-06-10T14:42:56.621Z,0.72
2019-06-10T14:47:02.970Z,0.70
2019-06-10T14:51:07.116Z,0.90
2019-06-10T14:55:13.849Z,0.90
2019-06-10T14:59:18.052Z,0.82
2019-06-10T15:03:22.892Z,0.90
2019-06-10T15:07:27.268Z,0.93
2019-06-10T15:11:32.164Z,0.80
2019-06-10T15:15:36.520Z,0.90
2019-06-10T15:19:42.512Z,0.70
2019-06-10T15:23:47.092Z,0.80
2019-06-10T15:27:52.732Z,0.80
2019-06-10T15:32:13.592Z,1.25
2019-06-10T15:36:03.012Z,1.72
2019-06-10T15:40:07.575Z,1.72
2019-06-10T15:44:14.563Z,0.90
2019-06-10T15:48:18.836Z,0.93
2019-06-10T15:52:25.082Z,0.70
2019-06-10T15:56:41.729Z,0.90
2019-06-10T16:00:35.495Z,0.70
2019-06-10T16:04:40.184Z,0.70
2019-06-10T16:08:44.345Z,0.60
2019-06-10T16:12:48.628Z,0.70
2019-06-10T16:16:52.969Z,0.70
2019-06-10T16:20:58.220Z,0.80
2019-06-10T16:25:03.447Z,0.82
2019-06-10T16:29:07.642Z,0.90
2019-06-10T16:33:13.231Z,0.68
2019-06-10T16:37:22.421Z,0.90
2019-06-10T16:41:27.793Z,0.60
2019-06-10T16:45:33.859Z,0.95
2019-06-10T16:49:37.041Z,0.90
2019-06-10T16:53:42.603Z,0.65
2019-06-10T16:57:58.812Z,0.93
2019-06-10T17:01:53.261Z,0.65
2019-06-10T17:05:57.527Z,0.78
2019-06-10T17:10:02.970Z,1.00
2019-06-10T17:14:08.455Z,0.90
2019-06-10T17:18:13.130Z,0.80
2019-06-10T17:22:18.758Z,2.25
2019-06-10T17:26:29.652Z,0.93
2019-06-10T17:30:30.089Z,1.27
2019-06-10T17:34:42.326Z,1.75
2019-06-10T17:38:46.832Z,1.70
2019-06-10T17:42:55.454Z,1.67
2019-06-10T17:47:02.200Z,1.80
2019-06-10T17:51:05.973Z,1.40
2019-06-10T17:55:12.510Z,2.33
2019-06-10T17:59:18.992Z,1.10
2019-06-10T18:03:25.861Z,1.02
2019-06-10T18:07:31.990Z,1.60
2019-06-10T18:11:42.926Z,1.30
2019-06-10T18:15:47.689Z,0.90
2019-06-10T18:19:58.068Z,1.00
2019-06-10T18:24:07.436Z,0.90
2019-06-10T18:28:16.077Z,0.62
2019-06-10T18:32:22.743Z,0.70
2019-06-10T18:36:26.195Z,0.60
2019-06-10T18:40:31.517Z,0.57
2019-06-10T18:44:37.493Z,0.30
2019-06-10T18:48:43.058Z,0.40
2019-06-10T18:52:50.066Z,0.33
2019-06-10T18:56:54.561Z,0.42
2019-06-10T19:01:05.136Z,0.60
2019-06-10T19:05:08.328Z,0.50
2019-06-10T19:09:12.951Z,0.40
2019-06-10T19:13:17.203Z,0.55
2019-06-10T19:17:23.156Z,0.50
2019-06-10T19:21:28.449Z,0.60
2019-06-10T19:25:33.777Z,0.40
2019-06-10T19:29:45.804Z,0.45
2019-06-10T19:33:45.282Z,0.40
2019-06-10T19:37:49.625Z,0.50
2019-06-10T19:41:53.705Z,0.50
2019-06-10T19:45:57.894Z,0.60
2019-06-10T19:50:02.975Z,0.50
2019-06-10T19:54:07.544Z,0.50
2019-06-10T19:58:13.420Z,0.42
2019-06-10T20:02:17.868Z,0.60
2019-06-10T20:06:22.101Z,0.60
2019-06-10T20:10:26.605Z,0.40
2019-06-10T20:14:32.284Z,0.53
2019-06-10T20:18:37.832Z,0.60
2019-06-10T20:22:43.999Z,0.62
2019-06-10T20:26:48.210Z,0.50
2019-06-10T20:30:52.933Z,0.40
2019-06-10T20:34:57.168Z,0.47
2019-06-10T20:39:01.624Z,1.25
2019-06-10T20:43:07.174Z,0.40
2019-06-10T20:47:12.223Z,0.75
2019-06-10T20:51:18.711Z,0.40
2019-06-10T20:55:24.866Z,0.45
2019-06-10T20:59:28.679Z,0.45
2019-06-10T21:03:32.798Z,0.40
2019-06-10T21:07:37.543Z,0.50
2019-06-10T21:11:45.116Z,0.40
2019-06-10T21:15:50.448Z,0.47
2019-06-10T21:19:54.491Z,0.40
2019-06-10T21:23:58.642Z,0.50
2019-06-10T21:28:03.536Z,0.40
2019-06-10T21:32:07.786Z,0.50
2019-06-10T21:36:12.422Z,0.60
2019-06-10T21:40:16.543Z,0.90
2019-06-10T21:44:23.100Z,0.40
2019-06-10T21:48:26.637Z,0.50
2019-06-10T21:52:32.454Z,0.40
2019-06-10T21:56:36.703Z,0.50
2019-06-10T22:00:58.026Z,0.50
2019-06-10T22:04:55.660Z,0.45
2019-06-10T22:08:59.988Z,0.50
2019-06-10T22:13:04.465Z,0.42
2019-06-10T22:17:08.847Z,0.50
2019-06-10T22:21:14.697Z,0.50
2019-06-10T22:25:19.011Z,0.50
2019-06-10T22:29:23.202Z,0.60
2019-06-10T22:33:27.337Z,0.57
2019-06-10T22:37:32.943Z,0.60
2019-06-10T22:41:37.373Z,0.42
2019-06-10T22:45:42.419Z,0.60
2019-06-10T22:49:47.909Z,0.50
2019-06-10T22:53:54.732Z,0.50
2019-06-10T22:57:59.816Z,0.50
2019-06-10T23:02:03.796Z,0.70
2019-06-10T23:06:08.913Z,0.60
2019-06-10T23:10:13.518Z,0.70
2019-06-10T23:14:17.686Z,0.80
2019-06-10T23:18:22.405Z,0.80
2019-06-10T23:22:26.645Z,0.70
2019-06-10T23:26:33.007Z,0.60
2019-06-10T23:30:36.714Z,0.70
2019-06-10T23:34:42.274Z,0.50
2019-06-10T23:38:47.641Z,0.60
2019-06-10T23:42:53.080Z,0.60
2019-06-10T23:46:57.442Z,0.80
2019-06-10T23:51:04.751Z,0.60
2019-06-10T23:55:07.541Z,0.62
2019-06-10T23:59:12.121Z,0.70
